Enter the Airport ICAO Code

Search by Airport or City

Current Weather

SKBQ | Ernesto Cortissoz International Airport

Barranquilla, Colombia

Last Update 20 Minutes Ago

Sky with Few Clouds

Temperature of 26 ºC

Light Winds from North

Temperature

26 ºC

Dew Point Temperature

25 ºC

Relative Humidity

94.27 %

Wind Direction

North (020º, Without Significant Variations)

Wind Velocity

7 km/h (04 kt)

Gusts

None

Visibility

Greater than 10 Kilometers

Sea Level Pressure

29.79 inHg (Inches of Mercury)

Layers of Clouds

5% to 30% of Sky Covered from 457 mts (1500 ft) Above Ground Level.

METAR SKBQ 160700Z 02004KT 9999 FEW015 26/25 A2979 NOSIG

Weather Forecast

SKBQ | Ernesto Cortissoz International Airport

Barranquilla, Colombia

Forecast valid for the next 23 Hours

From now on it is expected:

Partly Cloudy Sky

Moderate Winds from North

In 2 to 4 hours it is expected the begining of:

Light Winds from NorthEast

In 4 hours it is expected the begining of 2 hours with intermittent periods of:

Mist

In 15 to 17 hours it is expected the begining of:

Moderate Winds from North

Maximum Temperature

No Data

Minimum Temperature

No Data

TAF SKBQ 160430Z 1606/1706 02010KT 9999 SCT015 BECMG 1609/1611 05003KT TEMPO 1611/1613 5000 BR BKN010 TEMPO 1619/1622 SCT012CB BECMG 1622/1624 36012KT TX32/1617Z TN25/1610Z